Map

Track Data

SID SEASON NUMBER BASIN SUBBASIN NAME ISO_TIME NATURE LAT LON WMO_WIND WMO_PRES WMO_AGENCY TRACK_TYPE DIST2LAND LANDFALL IFLAG USA_AGENCY USA_ATCF_ID USA_LAT USA_LON USA_RECORD USA_STATUS USA_WIND USA_PRES USA_SSHS USA_R34_NE USA_R34_SE USA_R34_SW USA_R34_NW USA_R50_NE USA_R50_SE USA_R50_SW USA_R50_NW USA_R64_NE USA_R64_SE USA_R64_SW USA_R64_NW USA_POCI USA_ROCI USA_RMW USA_EYE TOKYO_LAT TOKYO_LON TOKYO_GRADE TOKYO_WIND TOKYO_PRES TOKYO_R50_DIR TOKYO_R50_LONG TOKYO_R50_SHORT TOKYO_R30_DIR TOKYO_R30_LONG TOKYO_R30_SHORT TOKYO_LAND CMA_LAT CMA_LON CMA_CAT CMA_WIND CMA_PRES HKO_LAT HKO_LON HKO_CAT HKO_WIND HKO_PRES NEWDELHI_LAT NEWDELHI_LON NEWDELHI_GRADE NEWDELHI_WIND NEWDELHI_PRES NEWDELHI_CI NEWDELHI_DP NEWDELHI_POCI REUNION_LAT REUNION_LON REUNION_TYPE REUNION_WIND REUNION_PRES REUNION_TNUM REUNION_CI REUNION_RMW REUNION_R34_NE REUNION_R34_SE REUNION_R34_SW REUNION_R34_NW REUNION_R50_NE REUNION_R50_SE REUNION_R50_SW REUNION_R50_NW REUNION_R64_NE REUNION_R64_SE REUNION_R64_SW REUNION_R64_NW BOM_LAT BOM_LON BOM_TYPE BOM_WIND BOM_PRES BOM_TNUM BOM_CI BOM_RMW BOM_R34_NE BOM_R34_SE BOM_R34_SW BOM_R34_NW BOM_R50_NE BOM_R50_SE BOM_R50_SW BOM_R50_NW BOM_R64_NE BOM_R64_SE BOM_R64_SW BOM_R64_NW BOM_ROCI BOM_POCI BOM_EYE BOM_POS_METHOD BOM_PRES_METHOD NADI_LAT NADI_LON NADI_CAT NADI_WIND NADI_PRES WELLINGTON_LAT WELLINGTON_LON WELLINGTON_WIND WELLINGTON_PRES DS824_LAT DS824_LON DS824_STAGE DS824_WIND DS824_PRES TD9636_LAT TD9636_LON TD9636_STAGE TD9636_WIND TD9636_PRES TD9635_LAT TD9635_LON TD9635_WIND TD9635_PRES TD9635_ROCI NEUMANN_LAT NEUMANN_LON NEUMANN_CLASS NEUMANN_WIND NEUMANN_PRES MLC_LAT MLC_LON MLC_CLASS MLC_WIND MLC_PRES USA_GUST BOM_GUST BOM_GUST_PER REUNION_GUST REUNION_GUST_PER USA_SEAHGT USA_SEARAD_NE USA_SEARAD_SE USA_SEARAD_SW USA_SEARAD_NW STORM_SPEED STORM_DIR
1904286N15284 1904 39 NA CS NOT_NAMED 1904-10-12 06:00:00 TS 15.3000 -75.7000 35 hurdat_atl main 295 291 O_____________ hurdat_atl AL041904 15.3000 -75.7000 TS 35 0 7 270
1904286N15284 1904 39 NA CS NOT_NAMED 1904-10-12 09:00:00 TS 15.3001 -76.0475 main 291 281 P_____________ AL041904 15.3001 -76.0475 TS 35 0 7 270
1904286N15284 1904 39 NA CS NOT_NAMED 1904-10-12 12:00:00 TS 15.3000 -76.4000 35 hurdat_atl main 281 273 O_____________ hurdat_atl AL041904 15.3000 -76.4000 TS 35 0 7 271
1904286N15284 1904 39 NA CS NOT_NAMED 1904-10-12 15:00:00 TS 15.3125 -76.7576 main 271 257 P_____________ AL041904 15.3125 -76.7576 TS 35 0 7 278
1904286N15284 1904 39 NA CS NOT_NAMED 1904-10-12 18:00:00 TS 15.4000 -77.1000 35 hurdat_atl main 257 235 O_____________ hurdat_atl AL041904 15.4000 -77.1000 TS 35 0 7 296
1904286N15284 1904 39 NA CS NOT_NAMED 1904-10-12 21:00:00 TS 15.6200 -77.4149 main 235 208 P_____________ AL041904 15.6200 -77.4149 TS 35 0 8 311
1904286N15284 1904 39 NA CS NOT_NAMED 1904-10-13 00:00:00 TS 15.9000 -77.7000 35 hurdat_atl main 208 193 O_____________ hurdat_atl AL041904 15.9000 -77.7000 TS 35 0 7 315
1904286N15284 1904 39 NA CS NOT_NAMED 1904-10-13 03:00:00 TS 16.1424 -77.9576 main 198 176 P_____________ AL041904 16.1424 -77.9576 TS 35 0 7 316
1904286N15284 1904 39 NA CS NOT_NAMED 1904-10-13 06:00:00 TS 16.4000 -78.2000 35 hurdat_atl main 176 153 O_____________ hurdat_atl AL041904 16.4000 -78.2000 TS 35 0 7 319
1904286N15284 1904 39 NA CS NOT_NAMED 1904-10-13 09:00:00 TS 16.7000 -78.4575 main 158 137 P_____________ AL041904 16.7000 -78.4575 TS 37 0 8 321
1904286N15284 1904 39 NA CS NOT_NAMED 1904-10-13 12:00:00 TS 17.0000 -78.7000 40 hurdat_atl main 137 119 O_____________ hurdat_atl AL041904 17.0000 -78.7000 TS 40 0 7 321
1904286N15284 1904 39 NA CS NOT_NAMED 1904-10-13 15:00:00 TS 17.2575 -78.9225 main 113 107 P_____________ AL041904 17.2575 -78.9225 TS 40 0 6 323
1904286N15284 1904 39 NA CS NOT_NAMED 1904-10-13 18:00:00 TS 17.5000 -79.1000 40 hurdat_atl main 107 99 O_____________ hurdat_atl AL041904 17.5000 -79.1000 TS 40 0 6 330
1904286N15284 1904 39 NA CS NOT_NAMED 1904-10-13 21:00:00 TS 17.7425 -79.2151 main 101 95 P_____________ AL041904 17.7425 -79.2151 TS 40 0 5 339
1904286N15284 1904 39 NA CS NOT_NAMED 1904-10-14 00:00:00 TS 18.0000 -79.3000 40 hurdat_atl main 97 95 O_____________ hurdat_atl AL041904 18.0000 -79.3000 TS 40 0 6 342
1904286N15284 1904 39 NA CS NOT_NAMED 1904-10-14 03:00:00 TS 18.2850 -79.4000 main 106 106 P_____________ AL041904 18.2850 -79.4000 TS 40 0 6 342
1904286N15284 1904 39 NA CS NOT_NAMED 1904-10-14 06:00:00 TS 18.6000 -79.5000 40 hurdat_atl main 124 124 O_____________ hurdat_atl AL041904 18.6000 -79.5000 TS 40 0 7 344
1904286N15284 1904 39 NA CS NOT_NAMED 1904-10-14 09:00:00 TS 18.9575 -79.6075 main 152 152 P_____________ AL041904 18.9575 -79.6075 TS 42 0 7 345
1904286N15284 1904 39 NA CS NOT_NAMED 1904-10-14 12:00:00 TS 19.3000 -79.7000 45 hurdat_atl main 178 178 O_____________ hurdat_atl AL041904 19.3000 -79.7000 TS 45 0 6 347
1904286N15284 1904 39 NA CS NOT_NAMED 1904-10-14 15:00:00 TS 19.5800 -79.7576 main 207 190 P_____________ AL041904 19.5800 -79.7576 TS 47 0 5 349
1904286N15284 1904 39 NA CS NOT_NAMED 1904-10-14 18:00:00 TS 19.8000 -79.8000 50 hurdat_atl main 190 182 O_____________ hurdat_atl AL041904 19.8000 -79.8000 TS 50 0 4 346
1904286N15284 1904 39 NA CS NOT_NAMED 1904-10-14 21:00:00 TS 19.9500 -79.8575 main 182 172 P_____________ AL041904 19.9500 -79.8575 TS 52 0 3 343
1904286N15284 1904 39 NA CS NOT_NAMED 1904-10-15 00:00:00 TS 20.1000 -79.9000 55 hurdat_atl main 172 151 O_____________ hurdat_atl AL041904 20.1000 -79.9000 TS 55 0 4 356
1904286N15284 1904 39 NA CS NOT_NAMED 1904-10-15 03:00:00 TS 20.3425 -79.9001 main 151 119 P_____________ AL041904 20.3425 -79.9001 TS 57 0 5 2
1904286N15284 1904 39 NA CS NOT_NAMED 1904-10-15 06:00:00 TS 20.6000 -79.9000 60 hurdat_atl main 119 98 O_____________ hurdat_atl AL041904 20.6000 -79.9000 TS 60 0 5 355
1904286N15284 1904 39 NA CS NOT_NAMED 1904-10-15 09:00:00 TS 20.8075 -79.9500 main 98 78 P_____________ AL041904 20.8075 -79.9500 TS 62 0 4 347
1904286N15284 1904 39 NA CS NOT_NAMED 1904-10-15 12:00:00 TS 21.0000 -80.0000 65 hurdat_atl main 78 55 O_____________ hurdat_atl AL041904 21.0000 -80.0000 HU 65 1 4 352
1904286N15284 1904 39 NA CS NOT_NAMED 1904-10-15 15:00:00 TS 21.2075 -80.0075 main 55 33 P_____________ AL041904 21.2075 -80.0075 HU 65 1 4 0
1904286N15284 1904 39 NA CS NOT_NAMED 1904-10-15 18:00:00 TS 21.4000 -80.0000 65 hurdat_atl main 33 22 O_____________ hurdat_atl AL041904 21.4000 -80.0000 HU 65 1 4 0
1904286N15284 1904 39 NA CS NOT_NAMED 1904-10-15 21:00:00 TS 21.5575 -80.0000 main 11 0 P_____________ AL041904 21.5575 -80.0000 HU 65 1 3 0
1904286N15284 1904 39 NA CS NOT_NAMED 1904-10-16 00:00:00 TS 21.7000 -80.0000 65 hurdat_atl main 0 0 O_____________ hurdat_atl AL041904 21.7000 -80.0000 HU 65 1 3 0
1904286N15284 1904 39 NA NA NOT_NAMED 1904-10-16 03:00:00 TS 21.8350 -80.0000 main 0 0 P_____________ AL041904 21.8350 -80.0000 HU 60 0 3 0
1904286N15284 1904 39 NA NA NOT_NAMED 1904-10-16 06:00:00 TS 22.0000 -80.0000 55 hurdat_atl main 0 0 O_____________ hurdat_atl AL041904 22.0000 -80.0000 TS 55 0 4 0
1904286N15284 1904 39 NA NA NOT_NAMED 1904-10-16 09:00:00 TS 22.2125 -80.0074 main 0 0 P_____________ AL041904 22.2125 -80.0074 TS 52 0 5 2
1904286N15284 1904 39 NA NA NOT_NAMED 1904-10-16 12:00:00 TS 22.5000 -80.0000 50 hurdat_atl main 0 0 O_____________ hurdat_atl AL041904 22.5000 -80.0000 TS 50 0 7 5
1904286N15284 1904 39 NA NA NOT_NAMED 1904-10-16 15:00:00 TS 22.8700 -79.9501 main 0 0 P_____________ AL041904 22.8700 -79.9501 TS 52 0 8 6
1904286N15284 1904 39 NA NA NOT_NAMED 1904-10-16 18:00:00 TS 23.3000 -79.9000 55 hurdat_atl main 45 45 O_____________ hurdat_atl AL041904 23.3000 -79.9000 TS 55 0 9 4
1904286N15284 1904 39 NA NA NOT_NAMED 1904-10-16 21:00:00 TS 23.7425 -79.8776 main 89 89 P_____________ AL041904 23.7425 -79.8776 TS 60 0 9 0
1904286N15284 1904 39 NA NA NOT_NAMED 1904-10-17 00:00:00 TS 24.2000 -79.9000 65 hurdat_atl main 112 67 O_____________ hurdat_atl AL041904 24.2000 -79.9000 HU 65 1 9 357
1904286N15284 1904 39 NA NA NOT_NAMED 1904-10-17 03:00:00 TS 24.6848 -79.9406 main 67 30 P_____________ AL041904 24.6848 -79.9406 HU 67 1 9 349
1904286N15284 1904 39 NA NA NOT_NAMED 1904-10-17 06:00:00 TS 25.1000 -80.1000 70 hurdat_atl main 30 10 O_____________ hurdat_atl AL041904 25.1000 -80.1000 HU 70 1 8 332
1904286N15284 1904 39 NA NA NOT_NAMED 1904-10-17 08:00:00 TS 25.3000 -80.3000 70 hurdat_atl main 10 0 O_____________ hurdat_atl AL041904 25.3000 -80.3000 L HU 70 1 8 318
1904286N15284 1904 39 NA NA NOT_NAMED 1904-10-17 09:00:00 TS 25.4072 -80.4071 main 0 0 P_____________ AL041904 25.4072 -80.4071 HU 67 1 8 318
1904286N15284 1904 39 NA NA NOT_NAMED 1904-10-17 12:00:00 TS 25.7000 -80.7000 60 hurdat_atl main 0 0 O_____________ hurdat_atl AL041904 25.7000 -80.7000 TS 60 0 6 317
1904286N15284 1904 39 NA NA NOT_NAMED 1904-10-17 15:00:00 TS 25.8293 -80.8367 main 0 0 P_____________ AL041904 25.8293 -80.8367 TS 55 0 3 318
1904286N15284 1904 39 NA NA NOT_NAMED 1904-10-17 18:00:00 TS 25.9000 -80.9000 50 hurdat_atl main 0 0 O_____________ hurdat_atl AL041904 25.9000 -80.9000 TS 50 0 3 326
1904286N15284 1904 39 NA NA NOT_NAMED 1904-10-17 21:00:00 TS 26.0425 -80.9925 main 0 0 P_____________ AL041904 26.0425 -80.9925 TS 47 0 4 329
1904286N15284 1904 39 NA NA NOT_NAMED 1904-10-18 00:00:00 TS 26.2000 -81.1000 45 hurdat_atl main 0 0 O_____________ hurdat_atl AL041904 26.2000 -81.1000 TS 45 0 4 325
1904286N15284 1904 39 NA NA NOT_NAMED 1904-10-18 03:00:00 TS 26.3575 -81.2425 main 0 0 P_____________ AL041904 26.3575 -81.2425 TS 42 0 4 318
1904286N15284 1904 39 NA NA NOT_NAMED 1904-10-18 06:00:00 TS 26.5000 -81.4000 40 hurdat_atl main 0 0 O_____________ hurdat_atl AL041904 26.5000 -81.4000 TS 40 0 4 315
1904286N15284 1904 39 NA NA NOT_NAMED 1904-10-18 09:00:00 TS 26.6149 -81.5276 main 0 0 P_____________ AL041904 26.6149 -81.5276 TS 40 0 3 307
1904286N15284 1904 39 NA NA NOT_NAMED 1904-10-18 12:00:00 TS 26.7000 -81.7000 40 hurdat_atl main 0 0 O_____________ hurdat_atl AL041904 26.7000 -81.7000 TS 40 0 5 290
1904286N15284 1904 39 NA NA NOT_NAMED 1904-10-18 15:00:00 TS 26.7727 -82.0074 main 0 0 P_____________ AL041904 26.7727 -82.0074 TS 37 0 5 281
1904286N15284 1904 39 NA GM NOT_NAMED 1904-10-18 18:00:00 TS 26.8000 -82.3000 35 hurdat_atl main 0 0 O_____________ hurdat_atl AL041904 26.8000 -82.3000 TS 35 0 4 269
1904286N15284 1904 39 NA GM NOT_NAMED 1904-10-18 21:00:00 TS 26.7649 -82.4376 main 9 9 P_____________ AL041904 26.7649 -82.4376 TS 35 0 2 240
1904286N15284 1904 39 NA GM NOT_NAMED 1904-10-19 00:00:00 TS 26.7000 -82.5000 35 hurdat_atl main 22 22 O_____________ hurdat_atl AL041904 26.7000 -82.5000 TS 35 0 1 226
1904286N15284 1904 39 NA GM NOT_NAMED 1904-10-19 03:00:00 TS 26.6650 -82.5575 main 31 31 P_____________ AL041904 26.6650 -82.5575 TS 35 0 1 220
1904286N15284 1904 39 NA GM NOT_NAMED 1904-10-19 06:00:00 TS 26.6000 -82.6000 35 hurdat_atl main 37 37 O_____________ hurdat_atl AL041904 26.6000 -82.6000 TS 35 0 2 207
1904286N15284 1904 39 NA GM NOT_NAMED 1904-10-19 09:00:00 TS 26.4725 -82.6651 main 51 51 P_____________ AL041904 26.4725 -82.6651 TS 35 0 3 196
1904286N15284 1904 39 NA GM NOT_NAMED 1904-10-19 12:00:00 TS 26.3000 -82.7000 35 hurdat_atl main 68 68 O_____________ hurdat_atl AL041904 26.3000 -82.7000 TS 35 0 4 184
1904286N15284 1904 39 NA GM NOT_NAMED 1904-10-19 15:00:00 TS 26.1000 -82.6875 main 81 80 P_____________ AL041904 26.1000 -82.6875 TS 35 0 4 168
1904286N15284 1904 39 NA GM NOT_NAMED 1904-10-19 18:00:00 TS 25.9000 -82.6000 35 hurdat_atl main 82 73 O_____________ hurdat_atl AL041904 25.9000 -82.6000 TS 35 0 4 149
1904286N15284 1904 39 NA GM NOT_NAMED 1904-10-19 21:00:00 TS 25.7350 -82.4375 main 73 60 P_____________ AL041904 25.7350 -82.4375 TS 35 0 5 130
1904286N15284 1904 39 NA GM NOT_NAMED 1904-10-20 00:00:00 TS 25.6000 -82.2000 35 hurdat_atl main 60 48 O_____________ hurdat_atl AL041904 25.6000 -82.2000 TS 35 0 5 120
1904286N15284 1904 39 NA GM NOT_NAMED 1904-10-20 03:00:00 TS 25.4610 -81.9140 main 48 41 P_____________ AL041904 25.4610 -81.9140 TS 35 0 6 110
1904286N15284 1904 39 NA GM NOT_NAMED 1904-10-20 06:00:00 TS 25.4000 -81.6000 35 hurdat_atl main 41 10 O_____________ hurdat_atl AL041904 25.4000 -81.6000 TS 35 0 6 88
1904286N15284 1904 39 NA GM NOT_NAMED 1904-10-20 09:00:00 TS 25.4788 -81.3001 main 10 0 P_____________ AL041904 25.4788 -81.3001 TS 35 0 6 74
1904286N15284 1904 39 NA GM NOT_NAMED 1904-10-20 10:00:00 TS 25.5000 -81.2000 35 hurdat_atl main 0 0 O_____________ hurdat_atl AL041904 25.5000 -81.2000 L TS 35 0 5 86
1904286N15284 1904 39 NA NA NOT_NAMED 1904-10-20 12:00:00 TS 25.5000 -81.0000 35 hurdat_atl main 0 0 O_____________ hurdat_atl AL041904 25.5000 -81.0000 TS 35 0 7 79
1904286N15284 1904 39 NA NA NOT_NAMED 1904-10-20 15:00:00 TS 25.6152 -80.5467 main 0 0 P_____________ AL041904 25.6152 -80.5467 TS 32 -1 10 72
1904286N15284 1904 39 NA NA NOT_NAMED 1904-10-20 18:00:00 TS 25.8000 -80.0000 30 hurdat_atl main 10 10 O_____________ hurdat_atl AL041904 25.8000 -80.0000 TD 30 -1 10 71
1904286N15284 1904 39 NA NA NOT_NAMED 1904-10-20 21:00:00 TS 25.9425 -79.4849 main 59 59 P_____________ AL041904 25.9425 -79.4849 TD 27 -1 9 72
1904286N15284 1904 39 NA NA NOT_NAMED 1904-10-21 00:00:00 TS 26.1000 -79.0000 25 hurdat_atl main 109 109 O_____________ hurdat_atl AL041904 26.1000 -79.0000 TD 25 -1 9 66
1904286N15284 1904 39 NA NA NOT_NAMED 1904-10-21 03:00:00 TS 26.2845 -78.6146 main 143 139 P_____________ AL041904 26.2845 -78.6146 TD 22 -1 8 61
1904286N15284 1904 39 NA NA NOT_NAMED 1904-10-21 06:00:00 TS 26.5000 -78.2000 20 hurdat_atl main 156 156 O_____________ hurdat_atl AL041904 26.5000 -78.2000 TD 20 -1 10 62
1904286N15284 1904 39 NA NA NOT_NAMED 1904-10-21 09:00:00 TS 26.7502 -77.6227 main 194 194 P_____________ AL041904 26.7502 -77.6227 TD 20 -1 12 65
1904286N15284 1904 39 NA NA NOT_NAMED 1904-10-21 12:00:00 TS 27.0000 -77.0000 20 hurdat_atl main 234 234 O_____________ hurdat_atl AL041904 27.0000 -77.0000 TD 20 -1 12 66
1904286N15284 1904 39 NA NA NOT_NAMED 1904-10-21 15:00:00 TS 27.2126 -76.4301 main 283 283 P_____________ AL041904 27.2126 -76.4301 TD 20 -1 11 68
1904286N15284 1904 39 NA NA NOT_NAMED 1904-10-21 18:00:00 TS 27.4000 -75.9000 20 hurdat_atl main 331 O_____________ hurdat_atl AL041904 27.4000 -75.9000 TD 20 -1 10 68

About IBTrACS Database

This database is a web-friendly format of International Best Track Archive for Climate Stewardship (IBTrACS), a global best track data archive curated by NOAA dating back to 1842.

Updated: 2021-12-03